createdAt,value
2023-02-12T00:09:52.246Z,101231.28
2023-02-12T00:19:54.691Z,101239.28
2023-02-12T00:29:57.171Z,101239.13
2023-02-12T00:39:59.690Z,101242.69
2023-02-12T00:50:02.271Z,101262.09
2023-02-12T01:00:05.632Z,101250.06
2023-02-12T01:10:08.946Z,101265.94
2023-02-12T01:20:14.818Z,101257.28
2023-02-12T01:30:17.422Z,101251.16
2023-02-12T01:40:19.965Z,101254.50
2023-02-12T01:50:23.048Z,101250.00
2023-02-12T02:00:26.028Z,101268.34
2023-02-12T02:10:30.368Z,101284.19
2023-02-12T02:20:57.361Z,101269.34
2023-02-12T02:31:15.366Z,101289.56
2023-02-12T02:41:36.388Z,101294.00
2023-02-12T02:51:43.336Z,101289.63
2023-02-12T03:01:52.905Z,101293.28
2023-02-12T03:12:01.185Z,101264.72
2023-02-12T03:22:09.310Z,101282.44
2023-02-12T03:32:27.898Z,101290.44
2023-02-12T03:42:43.725Z,101324.53
2023-02-12T03:52:47.465Z,101328.00
2023-02-12T04:02:50.634Z,101356.09
2023-02-12T04:13:01.436Z,101375.44
2023-02-12T04:23:42.321Z,101376.34
2023-02-12T04:34:13.298Z,101382.50
2023-02-12T04:44:17.324Z,101379.88
2023-02-12T04:54:21.377Z,101386.03
2023-02-12T05:04:23.894Z,101406.13
2023-02-12T05:14:26.389Z,101420.91
2023-02-12T05:24:28.911Z,101427.91
2023-02-12T05:34:31.430Z,101445.47
2023-02-12T05:44:33.855Z,101434.16
2023-02-12T05:54:36.265Z,101443.72
2023-02-12T06:04:38.790Z,101455.13
2023-02-12T06:14:41.694Z,101483.19
2023-02-12T06:24:44.177Z,101496.28
2023-02-12T06:34:46.610Z,101516.41
2023-02-12T06:44:51.312Z,101513.75
2023-02-12T06:54:55.151Z,101531.16
2023-02-12T07:04:57.629Z,101550.13
2023-02-12T07:15:00.104Z,101553.19
2023-02-12T07:25:02.699Z,101542.53
2023-02-12T07:35:05.412Z,101550.59
2023-02-12T07:45:08.235Z,101571.81
2023-02-12T07:55:10.925Z,101567.31
2023-02-12T08:05:13.426Z,101575.38
2023-02-12T08:15:15.995Z,101578.69
2023-02-12T08:25:18.451Z,101580.84
2023-02-12T08:35:21.066Z,101576.94
2023-02-12T08:45:23.583Z,101605.38
2023-02-12T08:55:26.133Z,101611.16
2023-02-12T09:05:28.589Z,101625.25
2023-02-12T09:15:36.152Z,101647.75
2023-02-12T09:25:44.098Z,101665.28
2023-02-12T09:35:46.893Z,101683.31
2023-02-12T09:46:21.744Z,101672.13
2023-02-12T09:56:27.045Z,101674.44
2023-02-12T10:06:35.834Z,101698.72
2023-02-12T10:17:04.208Z,101688.97
2023-02-12T10:27:20.517Z,101672.13
2023-02-12T10:37:44.691Z,101658.66
2023-02-12T10:47:52.607Z,101661.34
2023-02-12T10:57:55.801Z,101665.06
2023-02-12T11:07:58.573Z,101650.41
2023-02-12T11:18:05.484Z,101674.34
2023-02-12T11:28:14.430Z,101669.66
2023-02-12T11:38:24.621Z,101664.16
2023-02-12T11:48:31.324Z,101651.56
2023-02-12T11:58:33.935Z,101628.91
2023-02-12T12:08:44.876Z,101645.84
2023-02-12T12:19:14.147Z,101654.97
2023-02-12T12:29:33.522Z,101641.69
2023-02-12T12:40:14.942Z,101637.56
2023-02-12T12:50:38.923Z,101645.75
2023-02-12T13:01:04.293Z,101627.84
2023-02-12T13:11:44.566Z,101603.38
2023-02-12T13:22:16.564Z,101604.69
2023-02-12T13:32:36.452Z,101625.59
2023-02-12T13:42:49.971Z,101628.56
2023-02-12T13:53:26.455Z,101630.78
2023-02-12T14:03:31.287Z,101646.38
2023-02-12T14:13:46.047Z,101645.28
2023-02-12T14:23:50.823Z,101651.03
2023-02-12T14:34:15.406Z,101650.38
2023-02-12T14:44:18.134Z,101656.41
2023-02-12T14:54:35.631Z,101653.78
2023-02-12T15:04:38.755Z,101654.22
2023-02-12T15:14:45.825Z,101659.53
2023-02-12T15:24:49.150Z,101663.56
2023-02-12T15:34:53.302Z,101671.38
2023-02-12T15:45:22.684Z,101679.59
2023-02-12T15:55:28.762Z,101687.88
2023-02-12T16:05:35.018Z,101696.94
2023-02-12T16:15:40.389Z,101713.84
2023-02-12T16:25:43.382Z,101719.34
2023-02-12T16:35:45.878Z,101707.13
2023-02-12T16:45:49.401Z,101729.09
2023-02-12T16:55:51.983Z,101757.13
2023-02-12T17:05:55.123Z,101764.13
2023-02-12T17:16:01.819Z,101787.81
2023-02-12T17:26:05.547Z,101785.16
2023-02-12T17:36:11.207Z,101791.31
2023-02-12T17:46:19.426Z,101802.69
2023-02-12T17:56:25.674Z,101805.28
2023-02-12T18:06:30.946Z,101804.44
2023-02-12T18:16:35.062Z,101812.28
2023-02-12T18:26:38.021Z,101818.34
2023-02-12T18:36:40.895Z,101819.16
2023-02-12T18:46:44.582Z,101826.13
2023-02-12T18:56:51.230Z,101825.91
2023-02-12T19:06:54.732Z,101837.88
2023-02-12T19:16:57.571Z,101837.56
2023-02-12T19:27:00.333Z,101847.84
2023-02-12T19:37:03.210Z,101858.38
2023-02-12T19:47:05.810Z,101855.66
2023-02-12T19:57:09.400Z,101845.88
2023-02-12T20:07:12.340Z,101866.72
2023-02-12T20:17:15.166Z,101861.41
2023-02-12T20:27:19.018Z,101863.94
2023-02-12T20:37:21.838Z,101863.06
2023-02-12T20:47:28.793Z,101861.06
2023-02-12T20:57:34.706Z,101876.53
2023-02-12T21:07:37.467Z,101871.59
2023-02-12T21:17:41.153Z,101894.84
2023-02-12T21:27:44.052Z,101891.41
2023-02-12T21:37:46.818Z,101895.44
2023-02-12T21:47:49.548Z,101884.78
2023-02-12T21:57:52.288Z,101892.00
2023-02-12T22:07:54.989Z,101883.53
2023-02-12T22:17:57.470Z,101890.22
2023-02-12T22:28:01.163Z,101896.13
2023-02-12T22:38:03.785Z,101888.53
2023-02-12T22:48:06.237Z,101894.59
2023-02-12T22:58:08.808Z,101866.25
2023-02-12T23:08:11.293Z,101904.94
2023-02-12T23:18:13.877Z,101885.09
2023-02-12T23:28:17.494Z,101911.38
2023-02-12T23:38:20.088Z,101918.69
2023-02-12T23:48:22.630Z,101915.69
2023-02-12T23:58:25.097Z,101923.75
